Terminal Aerodrome Forecast
Issued by NWS Twin Cities, MN

Home | Current Version | Previous Version | Graphics & Text | Print | Product List | Glossary On
Versions: 1 2 3 4 5 6 7 8 9 10 11 12 13 14 15 16 17 18 19 20 21 22 23 24 25 26 27 28 29 30
000
FTUS43 KMPX 251730
TAFMSP
TAF
KMSP 251730Z 2518/2624 04010KT P6SM SCT025 OVC110
     FM252200 05003KT P6SM SCT020 BKN100
     FM260600 17008KT P6SM OVC020
     FM260900 19009KT 5SM -SN OVC015 PROB30 2611/2614 3SM -FZDZ BR
      OVC010
     FM261500 25008KT 6SM HZ OVC020
     FM262100 30010KT P6SM BKN035=

USA.gov is the U.S. government's official web portal to all federal, state and local government web resources and services.